sensor_id;sensor_type;location;lat;lon;timestamp;P1;durP1;ratioP1;P2;durP2;ratioP2
19406;SDS011;9839;53.364;-1.204;2023-07-31T00:00:11;1.65;;;0.88;;
19406;SDS011;9839;53.364;-1.204;2023-07-31T00:02:37;3.15;;;1.50;;
19406;SDS011;9839;53.364;-1.204;2023-07-31T00:05:03;2.05;;;1.17;;
19406;SDS011;9839;53.364;-1.204;2023-07-31T00:07:28;2.55;;;1.40;;
19406;SDS011;9839;53.364;-1.204;2023-07-31T00:09:53;4.90;;;1.50;;
19406;SDS011;9839;53.364;-1.204;2023-07-31T00:12:19;2.47;;;1.65;;
19406;SDS011;9839;53.364;-1.204;2023-07-31T00:14:45;6.45;;;1.50;;
19406;SDS011;9839;53.364;-1.204;2023-07-31T00:17:11;3.38;;;1.60;;
19406;SDS011;9839;53.364;-1.204;2023-07-31T00:19:36;4.72;;;1.52;;
19406;SDS011;9839;53.364;-1.204;2023-07-31T00:22:02;3.85;;;1.90;;
19406;SDS011;9839;53.364;-1.204;2023-07-31T00:24:27;3.00;;;1.85;;
19406;SDS011;9839;53.364;-1.204;2023-07-31T00:26:52;4.68;;;1.95;;
19406;SDS011;9839;53.364;-1.204;2023-07-31T00:29:18;3.20;;;1.70;;
19406;SDS011;9839;53.364;-1.204;2023-07-31T00:31:43;3.50;;;1.90;;
19406;SDS011;9839;53.364;-1.204;2023-07-31T00:34:09;3.78;;;1.70;;
19406;SDS011;9839;53.364;-1.204;2023-07-31T00:36:34;4.90;;;2.08;;
19406;SDS011;9839;53.364;-1.204;2023-07-31T00:39:00;5.47;;;1.70;;
19406;SDS011;9839;53.364;-1.204;2023-07-31T00:41:26;2.88;;;1.70;;
19406;SDS011;9839;53.364;-1.204;2023-07-31T00:43:51;6.85;;;2.08;;
19406;SDS011;9839;53.364;-1.204;2023-07-31T00:46:16;2.75;;;1.90;;
19406;SDS011;9839;53.364;-1.204;2023-07-31T00:48:42;3.58;;;2.00;;
19406;SDS011;9839;53.364;-1.204;2023-07-31T00:51:07;3.60;;;1.50;;
19406;SDS011;9839;53.364;-1.204;2023-07-31T00:53:33;3.53;;;1.58;;
19406;SDS011;9839;53.364;-1.204;2023-07-31T00:55:59;9.65;;;2.05;;
19406;SDS011;9839;53.364;-1.204;2023-07-31T00:58:24;3.10;;;1.70;;
19406;SDS011;9839;53.364;-1.204;2023-07-31T01:00:49;2.65;;;1.73;;
19406;SDS011;9839;53.364;-1.204;2023-07-31T01:03:15;6.78;;;2.00;;
19406;SDS011;9839;53.364;-1.204;2023-07-31T01:05:49;2.53;;;1.50;;
19406;SDS011;9839;53.364;-1.204;2023-07-31T01:08:42;1.90;;;1.20;;
19406;SDS011;9839;53.364;-1.204;2023-07-31T01:11:19;2.85;;;1.65;;
19406;SDS011;9839;53.364;-1.204;2023-07-31T01:13:49;2.72;;;1.45;;
19406;SDS011;9839;53.364;-1.204;2023-07-31T01:16:14;5.15;;;1.60;;
19406;SDS011;9839;53.364;-1.204;2023-07-31T01:18:40;5.13;;;1.92;;
19406;SDS011;9839;53.364;-1.204;2023-07-31T01:26:47;3.70;;;1.40;;
19406;SDS011;9839;53.364;-1.204;2023-07-31T01:32:23;7.75;;;1.20;;
19406;SDS011;9839;53.364;-1.204;2023-07-31T01:34:50;3.35;;;1.10;;
19406;SDS011;9839;53.364;-1.204;2023-07-31T01:37:16;4.38;;;1.20;;
19406;SDS011;9839;53.364;-1.204;2023-07-31T01:39:41;3.75;;;1.30;;
19406;SDS011;9839;53.364;-1.204;2023-07-31T01:42:07;2.78;;;1.00;;
19406;SDS011;9839;53.364;-1.204;2023-07-31T01:44:32;1.50;;;0.80;;
19406;SDS011;9839;53.364;-1.204;2023-07-31T01:46:58;3.78;;;1.08;;
19406;SDS011;9839;53.364;-1.204;2023-07-31T01:49:25;4.32;;;1.30;;
19406;SDS011;9839;53.364;-1.204;2023-07-31T01:51:50;2.25;;;0.90;;
19406;SDS011;9839;53.364;-1.204;2023-07-31T01:54:15;2.55;;;0.88;;
19406;SDS011;9839;53.364;-1.204;2023-07-31T01:56:41;4.85;;;1.02;;
19406;SDS011;9839;53.364;-1.204;2023-07-31T01:59:06;0.95;;;0.80;;
19406;SDS011;9839;53.364;-1.204;2023-07-31T02:01:31;2.75;;;1.23;;
19406;SDS011;9839;53.364;-1.204;2023-07-31T02:03:57;2.80;;;0.77;;
19406;SDS011;9839;53.364;-1.204;2023-07-31T02:06:22;3.22;;;0.85;;
19406;SDS011;9839;53.364;-1.204;2023-07-31T02:08:48;2.08;;;0.63;;
19406;SDS011;9839;53.364;-1.204;2023-07-31T02:11:14;1.35;;;0.98;;
19406;SDS011;9839;53.364;-1.204;2023-07-31T02:13:39;2.60;;;0.80;;
19406;SDS011;9839;53.364;-1.204;2023-07-31T02:16:04;2.13;;;0.85;;
19406;SDS011;9839;53.364;-1.204;2023-07-31T02:18:30;4.88;;;0.88;;
19406;SDS011;9839;53.364;-1.204;2023-07-31T02:20:55;2.58;;;0.95;;
19406;SDS011;9839;53.364;-1.204;2023-07-31T02:23:21;2.97;;;1.48;;
19406;SDS011;9839;53.364;-1.204;2023-07-31T02:25:46;0.82;;;0.57;;
19406;SDS011;9839;53.364;-1.204;2023-07-31T02:28:12;0.98;;;0.50;;
19406;SDS011;9839;53.364;-1.204;2023-07-31T02:30:37;0.93;;;0.55;;
19406;SDS011;9839;53.364;-1.204;2023-07-31T02:33:03;2.38;;;0.70;;
19406;SDS011;9839;53.364;-1.204;2023-07-31T02:35:29;0.40;;;0.40;;
19406;SDS011;9839;53.364;-1.204;2023-07-31T02:37:55;2.65;;;0.60;;
19406;SDS011;9839;53.364;-1.204;2023-07-31T02:40:20;3.15;;;0.70;;
19406;SDS011;9839;53.364;-1.204;2023-07-31T02:42:45;1.08;;;0.80;;
19406;SDS011;9839;53.364;-1.204;2023-07-31T02:45:11;0.50;;;0.40;;
19406;SDS011;9839;53.364;-1.204;2023-07-31T02:47:36;0.40;;;0.40;;
19406;SDS011;9839;53.364;-1.204;2023-07-31T02:50:02;0.40;;;0.40;;
19406;SDS011;9839;53.364;-1.204;2023-07-31T02:52:28;0.75;;;0.50;;
19406;SDS011;9839;53.364;-1.204;2023-07-31T02:54:53;1.95;;;0.40;;
19406;SDS011;9839;53.364;-1.204;2023-07-31T02:57:19;2.47;;;0.60;;
19406;SDS011;9839;53.364;-1.204;2023-07-31T02:59:44;0.60;;;0.40;;
19406;SDS011;9839;53.364;-1.204;2023-07-31T03:02:09;0.60;;;0.52;;
19406;SDS011;9839;53.364;-1.204;2023-07-31T03:04:35;2.45;;;0.60;;
19406;SDS011;9839;53.364;-1.204;2023-07-31T03:07:01;1.08;;;0.45;;
19406;SDS011;9839;53.364;-1.204;2023-07-31T03:09:26;1.00;;;0.43;;
19406;SDS011;9839;53.364;-1.204;2023-07-31T03:11:51;2.72;;;0.60;;
19406;SDS011;9839;53.364;-1.204;2023-07-31T03:14:17;0.82;;;0.60;;
19406;SDS011;9839;53.364;-1.204;2023-07-31T03:16:42;0.77;;;0.45;;
19406;SDS011;9839;53.364;-1.204;2023-07-31T03:19:07;1.55;;;0.50;;
19406;SDS011;9839;53.364;-1.204;2023-07-31T03:21:33;1.48;;;0.50;;
19406;SDS011;9839;53.364;-1.204;2023-07-31T03:23:58;0.65;;;0.50;;
19406;SDS011;9839;53.364;-1.204;2023-07-31T03:26:23;0.60;;;0.50;;
19406;SDS011;9839;53.364;-1.204;2023-07-31T03:28:49;0.68;;;0.50;;
19406;SDS011;9839;53.364;-1.204;2023-07-31T03:31:14;0.75;;;0.60;;
19406;SDS011;9839;53.364;-1.204;2023-07-31T03:33:40;0.57;;;0.57;;
19406;SDS011;9839;53.364;-1.204;2023-07-31T03:36:05;2.00;;;0.60;;
19406;SDS011;9839;53.364;-1.204;2023-07-31T03:38:31;0.80;;;0.50;;
19406;SDS011;9839;53.364;-1.204;2023-07-31T03:40:56;4.15;;;0.50;;
19406;SDS011;9839;53.364;-1.204;2023-07-31T03:43:23;3.75;;;0.50;;
19406;SDS011;9839;53.364;-1.204;2023-07-31T03:45:49;2.55;;;0.50;;
19406;SDS011;9839;53.364;-1.204;2023-07-31T03:48:15;1.17;;;0.40;;
19406;SDS011;9839;53.364;-1.204;2023-07-31T03:50:41;1.27;;;0.50;;
19406;SDS011;9839;53.364;-1.204;2023-07-31T03:53:06;0.75;;;0.55;;
19406;SDS011;9839;53.364;-1.204;2023-07-31T03:55:32;0.90;;;0.52;;
19406;SDS011;9839;53.364;-1.204;2023-07-31T03:57:57;1.75;;;0.40;;
19406;SDS011;9839;53.364;-1.204;2023-07-31T04:00:22;2.50;;;0.50;;
19406;SDS011;9839;53.364;-1.204;2023-07-31T04:02:48;0.52;;;0.40;;
19406;SDS011;9839;53.364;-1.204;2023-07-31T04:05:13;3.92;;;0.70;;
19406;SDS011;9839;53.364;-1.204;2023-07-31T04:07:38;1.85;;;0.70;;
19406;SDS011;9839;53.364;-1.204;2023-07-31T04:10:04;1.75;;;0.60;;
19406;SDS011;9839;53.364;-1.204;2023-07-31T04:12:29;1.75;;;0.98;;
19406;SDS011;9839;53.364;-1.204;2023-07-31T04:14:55;3.42;;;0.88;;
19406;SDS011;9839;53.364;-1.204;2023-07-31T04:17:20;1.70;;;0.65;;
19406;SDS011;9839;53.364;-1.204;2023-07-31T04:19:46;1.35;;;0.80;;
19406;SDS011;9839;53.364;-1.204;2023-07-31T04:22:11;0.95;;;0.70;;
19406;SDS011;9839;53.364;-1.204;2023-07-31T04:24:36;1.38;;;0.90;;
19406;SDS011;9839;53.364;-1.204;2023-07-31T04:27:02;1.73;;;0.77;;
19406;SDS011;9839;53.364;-1.204;2023-07-31T04:29:27;2.00;;;0.90;;
19406;SDS011;9839;53.364;-1.204;2023-07-31T04:31:53;5.57;;;1.08;;
19406;SDS011;9839;53.364;-1.204;2023-07-31T04:34:18;1.88;;;0.80;;
19406;SDS011;9839;53.364;-1.204;2023-07-31T04:36:43;3.30;;;0.93;;
19406;SDS011;9839;53.364;-1.204;2023-07-31T04:39:09;2.90;;;1.10;;
19406;SDS011;9839;53.364;-1.204;2023-07-31T04:41:34;1.48;;;1.10;;
19406;SDS011;9839;53.364;-1.204;2023-07-31T04:44:00;1.98;;;1.15;;
19406;SDS011;9839;53.364;-1.204;2023-07-31T04:46:26;2.92;;;1.20;;
19406;SDS011;9839;53.364;-1.204;2023-07-31T04:48:51;4.68;;;1.20;;
19406;SDS011;9839;53.364;-1.204;2023-07-31T04:51:16;1.65;;;0.60;;
19406;SDS011;9839;53.364;-1.204;2023-07-31T04:53:42;3.72;;;0.90;;
19406;SDS011;9839;53.364;-1.204;2023-07-31T04:56:07;1.48;;;1.08;;
19406;SDS011;9839;53.364;-1.204;2023-07-31T04:58:33;1.08;;;0.80;;
19406;SDS011;9839;53.364;-1.204;2023-07-31T05:00:58;2.60;;;0.75;;
19406;SDS011;9839;53.364;-1.204;2023-07-31T05:03:24;2.58;;;0.93;;
19406;SDS011;9839;53.364;-1.204;2023-07-31T05:05:49;3.10;;;1.02;;
19406;SDS011;9839;53.364;-1.204;2023-07-31T05:08:15;0.85;;;0.70;;
19406;SDS011;9839;53.364;-1.204;2023-07-31T05:10:42;3.30;;;0.98;;
19406;SDS011;9839;53.364;-1.204;2023-07-31T05:13:08;1.40;;;0.80;;
19406;SDS011;9839;53.364;-1.204;2023-07-31T05:15:33;2.63;;;1.10;;
19406;SDS011;9839;53.364;-1.204;2023-07-31T05:17:58;2.28;;;0.88;;
19406;SDS011;9839;53.364;-1.204;2023-07-31T05:20:24;2.92;;;1.02;;
19406;SDS011;9839;53.364;-1.204;2023-07-31T05:22:50;1.27;;;0.93;;
19406;SDS011;9839;53.364;-1.204;2023-07-31T05:25:15;1.27;;;1.00;;
19406;SDS011;9839;53.364;-1.204;2023-07-31T05:27:41;1.85;;;1.00;;
19406;SDS011;9839;53.364;-1.204;2023-07-31T05:30:06;1.30;;;1.02;;
19406;SDS011;9839;53.364;-1.204;2023-07-31T05:32:32;5.32;;;3.00;;
19406;SDS011;9839;53.364;-1.204;2023-07-31T05:34:58;1.25;;;0.90;;
19406;SDS011;9839;53.364;-1.204;2023-07-31T05:37:23;0.90;;;0.82;;
19406;SDS011;9839;53.364;-1.204;2023-07-31T05:39:49;1.92;;;1.00;;
19406;SDS011;9839;53.364;-1.204;2023-07-31T05:42:14;5.78;;;2.55;;
19406;SDS011;9839;53.364;-1.204;2023-07-31T05:44:39;2.38;;;1.13;;
19406;SDS011;9839;53.364;-1.204;2023-07-31T05:47:05;2.28;;;1.30;;
19406;SDS011;9839;53.364;-1.204;2023-07-31T05:49:30;4.70;;;1.63;;
19406;SDS011;9839;53.364;-1.204;2023-07-31T05:51:56;1.70;;;1.25;;
19406;SDS011;9839;53.364;-1.204;2023-07-31T05:54:21;3.78;;;1.75;;
19406;SDS011;9839;53.364;-1.204;2023-07-31T05:56:47;2.85;;;1.38;;
19406;SDS011;9839;53.364;-1.204;2023-07-31T05:59:12;3.20;;;1.40;;
19406;SDS011;9839;53.364;-1.204;2023-07-31T06:01:38;2.65;;;1.35;;
19406;SDS011;9839;53.364;-1.204;2023-07-31T06:04:04;5.20;;;1.38;;
19406;SDS011;9839;53.364;-1.204;2023-07-31T06:06:29;4.75;;;1.50;;
19406;SDS011;9839;53.364;-1.204;2023-07-31T06:08:54;5.10;;;1.80;;
19406;SDS011;9839;53.364;-1.204;2023-07-31T06:11:20;2.33;;;1.38;;
19406;SDS011;9839;53.364;-1.204;2023-07-31T06:13:46;2.60;;;1.40;;
19406;SDS011;9839;53.364;-1.204;2023-07-31T06:16:13;2.97;;;1.80;;
19406;SDS011;9839;53.364;-1.204;2023-07-31T06:18:39;4.90;;;1.73;;
19406;SDS011;9839;53.364;-1.204;2023-07-31T06:21:04;4.72;;;1.95;;
19406;SDS011;9839;53.364;-1.204;2023-07-31T06:23:29;3.22;;;2.00;;
19406;SDS011;9839;53.364;-1.204;2023-07-31T06:25:55;4.07;;;1.88;;
19406;SDS011;9839;53.364;-1.204;2023-07-31T06:28:20;4.53;;;1.90;;
19406;SDS011;9839;53.364;-1.204;2023-07-31T06:30:45;3.35;;;1.88;;
19406;SDS011;9839;53.364;-1.204;2023-07-31T06:33:11;2.83;;;1.80;;
19406;SDS011;9839;53.364;-1.204;2023-07-31T06:35:36;3.83;;;2.10;;
19406;SDS011;9839;53.364;-1.204;2023-07-31T06:38:01;5.32;;;1.70;;
19406;SDS011;9839;53.364;-1.204;2023-07-31T06:40:27;4.05;;;1.83;;
19406;SDS011;9839;53.364;-1.204;2023-07-31T06:42:53;5.25;;;1.90;;
19406;SDS011;9839;53.364;-1.204;2023-07-31T06:45:18;5.55;;;2.13;;
19406;SDS011;9839;53.364;-1.204;2023-07-31T06:47:44;5.55;;;2.50;;
19406;SDS011;9839;53.364;-1.204;2023-07-31T06:50:12;7.82;;;2.33;;
19406;SDS011;9839;53.364;-1.204;2023-07-31T06:52:37;5.82;;;2.05;;
19406;SDS011;9839;53.364;-1.204;2023-07-31T06:55:04;4.45;;;1.80;;
19406;SDS011;9839;53.364;-1.204;2023-07-31T06:57:42;5.43;;;2.00;;
19406;SDS011;9839;53.364;-1.204;2023-07-31T07:00:08;4.63;;;2.33;;
19406;SDS011;9839;53.364;-1.204;2023-07-31T07:02:34;5.80;;;2.38;;
19406;SDS011;9839;53.364;-1.204;2023-07-31T07:04:59;5.72;;;1.98;;
19406;SDS011;9839;53.364;-1.204;2023-07-31T07:07:24;5.20;;;2.30;;
19406;SDS011;9839;53.364;-1.204;2023-07-31T07:09:51;3.75;;;1.90;;
19406;SDS011;9839;53.364;-1.204;2023-07-31T07:12:16;6.88;;;2.38;;
19406;SDS011;9839;53.364;-1.204;2023-07-31T07:14:42;5.63;;;2.67;;
19406;SDS011;9839;53.364;-1.204;2023-07-31T07:17:07;5.32;;;1.90;;
19406;SDS011;9839;53.364;-1.204;2023-07-31T07:19:32;5.72;;;2.35;;
19406;SDS011;9839;53.364;-1.204;2023-07-31T07:21:58;6.30;;;3.08;;
19406;SDS011;9839;53.364;-1.204;2023-07-31T07:24:26;4.43;;;2.13;;
19406;SDS011;9839;53.364;-1.204;2023-07-31T07:26:51;5.78;;;2.70;;
19406;SDS011;9839;53.364;-1.204;2023-07-31T07:29:17;5.78;;;2.17;;
19406;SDS011;9839;53.364;-1.204;2023-07-31T07:31:42;5.72;;;2.50;;
19406;SDS011;9839;53.364;-1.204;2023-07-31T07:34:07;5.88;;;2.58;;
19406;SDS011;9839;53.364;-1.204;2023-07-31T07:36:33;6.63;;;2.63;;
19406;SDS011;9839;53.364;-1.204;2023-07-31T07:38:58;4.55;;;1.90;;
19406;SDS011;9839;53.364;-1.204;2023-07-31T07:41:23;3.90;;;2.10;;
19406;SDS011;9839;53.364;-1.204;2023-07-31T07:43:49;6.80;;;2.33;;
19406;SDS011;9839;53.364;-1.204;2023-07-31T07:46:14;6.32;;;2.63;;
19406;SDS011;9839;53.364;-1.204;2023-07-31T07:48:40;5.00;;;2.03;;
19406;SDS011;9839;53.364;-1.204;2023-07-31T07:51:05;5.07;;;2.55;;
19406;SDS011;9839;53.364;-1.204;2023-07-31T07:53:30;3.58;;;2.17;;
19406;SDS011;9839;53.364;-1.204;2023-07-31T07:55:56;4.35;;;2.00;;
19406;SDS011;9839;53.364;-1.204;2023-07-31T07:58:21;6.45;;;1.88;;
19406;SDS011;9839;53.364;-1.204;2023-07-31T08:00:52;7.75;;;2.10;;
19406;SDS011;9839;53.364;-1.204;2023-07-31T08:03:18;6.65;;;2.17;;
19406;SDS011;9839;53.364;-1.204;2023-07-31T08:05:43;4.15;;;2.33;;
19406;SDS011;9839;53.364;-1.204;2023-07-31T08:08:14;5.75;;;2.03;;
19406;SDS011;9839;53.364;-1.204;2023-07-31T08:10:41;7.75;;;2.50;;
19406;SDS011;9839;53.364;-1.204;2023-07-31T08:13:06;4.20;;;2.10;;
19406;SDS011;9839;53.364;-1.204;2023-07-31T08:15:32;8.82;;;2.53;;
19406;SDS011;9839;53.364;-1.204;2023-07-31T08:17:57;6.20;;;2.35;;
19406;SDS011;9839;53.364;-1.204;2023-07-31T08:20:22;9.20;;;4.03;;
19406;SDS011;9839;53.364;-1.204;2023-07-31T08:22:48;6.97;;;3.33;;
19406;SDS011;9839;53.364;-1.204;2023-07-31T08:25:13;7.35;;;2.78;;
19406;SDS011;9839;53.364;-1.204;2023-07-31T08:27:42;9.70;;;2.97;;
19406;SDS011;9839;53.364;-1.204;2023-07-31T08:30:08;6.05;;;2.70;;
19406;SDS011;9839;53.364;-1.204;2023-07-31T08:32:34;11.77;;;3.08;;
19406;SDS011;9839;53.364;-1.204;2023-07-31T08:34:59;9.25;;;3.28;;
19406;SDS011;9839;53.364;-1.204;2023-07-31T08:37:25;7.75;;;3.08;;
19406;SDS011;9839;53.364;-1.204;2023-07-31T08:39:50;7.80;;;2.83;;
19406;SDS011;9839;53.364;-1.204;2023-07-31T08:42:16;10.98;;;3.40;;
19406;SDS011;9839;53.364;-1.204;2023-07-31T08:44:41;5.80;;;3.25;;
19406;SDS011;9839;53.364;-1.204;2023-07-31T08:47:08;11.00;;;4.35;;
19406;SDS011;9839;53.364;-1.204;2023-07-31T08:49:34;6.35;;;3.53;;
19406;SDS011;9839;53.364;-1.204;2023-07-31T08:52:00;13.93;;;3.92;;
19406;SDS011;9839;53.364;-1.204;2023-07-31T08:54:25;9.65;;;3.03;;
19406;SDS011;9839;53.364;-1.204;2023-07-31T08:56:54;10.55;;;3.60;;
19406;SDS011;9839;53.364;-1.204;2023-07-31T08:59:19;7.13;;;3.17;;
19406;SDS011;9839;53.364;-1.204;2023-07-31T09:01:50;8.73;;;3.45;;
19406;SDS011;9839;53.364;-1.204;2023-07-31T09:04:18;10.80;;;3.58;;
19406;SDS011;9839;53.364;-1.204;2023-07-31T09:06:45;9.82;;;3.65;;
19406;SDS011;9839;53.364;-1.204;2023-07-31T09:09:12;8.85;;;2.85;;
19406;SDS011;9839;53.364;-1.204;2023-07-31T09:11:37;8.52;;;3.53;;
19406;SDS011;9839;53.364;-1.204;2023-07-31T09:14:02;8.45;;;3.20;;
19406;SDS011;9839;53.364;-1.204;2023-07-31T09:16:33;6.47;;;3.70;;
19406;SDS011;9839;53.364;-1.204;2023-07-31T09:18:59;9.73;;;3.50;;
19406;SDS011;9839;53.364;-1.204;2023-07-31T09:21:27;7.18;;;3.20;;
19406;SDS011;9839;53.364;-1.204;2023-07-31T10:35:40;5.13;;;2.30;;
19406;SDS011;9839;53.364;-1.204;2023-07-31T10:38:10;7.25;;;2.60;;
19406;SDS011;9839;53.364;-1.204;2023-07-31T10:40:36;3.88;;;2.25;;
19406;SDS011;9839;53.364;-1.204;2023-07-31T10:43:02;8.32;;;2.60;;
19406;SDS011;9839;53.364;-1.204;2023-07-31T10:48:03;5.95;;;3.08;;
19406;SDS011;9839;53.364;-1.204;2023-07-31T10:50:30;4.80;;;2.28;;
19406;SDS011;9839;53.364;-1.204;2023-07-31T10:52:58;11.02;;;2.75;;
19406;SDS011;9839;53.364;-1.204;2023-07-31T10:55:32;5.13;;;2.30;;
19406;SDS011;9839;53.364;-1.204;2023-07-31T11:00:34;5.38;;;2.10;;
19406;SDS011;9839;53.364;-1.204;2023-07-31T11:03:06;5.28;;;2.00;;
19406;SDS011;9839;53.364;-1.204;2023-07-31T11:05:52;5.90;;;2.47;;
19406;SDS011;9839;53.364;-1.204;2023-07-31T11:08:22;7.70;;;2.28;;
19406;SDS011;9839;53.364;-1.204;2023-07-31T11:10:49;5.28;;;2.22;;
19406;SDS011;9839;53.364;-1.204;2023-07-31T11:13:16;5.70;;;2.28;;
19406;SDS011;9839;53.364;-1.204;2023-07-31T11:15:42;6.97;;;2.20;;
19406;SDS011;9839;53.364;-1.204;2023-07-31T11:18:07;4.57;;;2.25;;
19406;SDS011;9839;53.364;-1.204;2023-07-31T11:20:35;4.68;;;2.08;;
19406;SDS011;9839;53.364;-1.204;2023-07-31T11:23:02;6.20;;;1.95;;
19406;SDS011;9839;53.364;-1.204;2023-07-31T11:25:29;4.53;;;2.00;;
19406;SDS011;9839;53.364;-1.204;2023-07-31T11:27:55;6.63;;;2.45;;
19406;SDS011;9839;53.364;-1.204;2023-07-31T11:30:21;5.35;;;2.17;;
19406;SDS011;9839;53.364;-1.204;2023-07-31T11:32:47;8.68;;;2.13;;
19406;SDS011;9839;53.364;-1.204;2023-07-31T11:35:12;8.05;;;2.30;;
19406;SDS011;9839;53.364;-1.204;2023-07-31T11:37:38;8.57;;;2.20;;
19406;SDS011;9839;53.364;-1.204;2023-07-31T11:40:05;5.45;;;2.25;;
19406;SDS011;9839;53.364;-1.204;2023-07-31T11:42:31;5.45;;;2.10;;
19406;SDS011;9839;53.364;-1.204;2023-07-31T11:44:56;6.72;;;2.35;;
19406;SDS011;9839;53.364;-1.204;2023-07-31T11:47:22;5.03;;;2.10;;
19406;SDS011;9839;53.364;-1.204;2023-07-31T11:49:47;5.35;;;2.10;;
19406;SDS011;9839;53.364;-1.204;2023-07-31T11:52:13;6.65;;;1.90;;
19406;SDS011;9839;53.364;-1.204;2023-07-31T11:54:39;4.18;;;2.10;;
19406;SDS011;9839;53.364;-1.204;2023-07-31T11:57:05;3.95;;;1.90;;
19406;SDS011;9839;53.364;-1.204;2023-07-31T11:59:31;4.22;;;2.00;;
19406;SDS011;9839;53.364;-1.204;2023-07-31T12:01:56;7.63;;;2.30;;
19406;SDS011;9839;53.364;-1.204;2023-07-31T12:04:23;5.07;;;1.63;;
19406;SDS011;9839;53.364;-1.204;2023-07-31T12:06:49;5.32;;;2.10;;
19406;SDS011;9839;53.364;-1.204;2023-07-31T12:09:15;8.23;;;2.03;;
19406;SDS011;9839;53.364;-1.204;2023-07-31T12:11:44;6.03;;;2.03;;
19406;SDS011;9839;53.364;-1.204;2023-07-31T12:14:19;4.68;;;1.60;;
19406;SDS011;9839;53.364;-1.204;2023-07-31T12:16:58;6.00;;;2.10;;
19406;SDS011;9839;53.364;-1.204;2023-07-31T12:19:25;7.47;;;2.10;;
19406;SDS011;9839;53.364;-1.204;2023-07-31T12:21:55;7.22;;;2.58;;
19406;SDS011;9839;53.364;-1.204;2023-07-31T12:24:35;4.00;;;1.92;;
19406;SDS011;9839;53.364;-1.204;2023-07-31T12:27:07;6.55;;;2.53;;
19406;SDS011;9839;53.364;-1.204;2023-07-31T12:29:34;4.75;;;1.98;;
19406;SDS011;9839;53.364;-1.204;2023-07-31T12:32:02;10.07;;;2.50;;
19406;SDS011;9839;53.364;-1.204;2023-07-31T12:34:28;6.25;;;2.03;;
19406;SDS011;9839;53.364;-1.204;2023-07-31T12:36:54;7.80;;;2.30;;
19406;SDS011;9839;53.364;-1.204;2023-07-31T12:39:19;3.15;;;1.90;;
19406;SDS011;9839;53.364;-1.204;2023-07-31T12:41:45;5.57;;;2.47;;
19406;SDS011;9839;53.364;-1.204;2023-07-31T12:44:10;5.32;;;2.13;;
19406;SDS011;9839;53.364;-1.204;2023-07-31T12:46:36;8.85;;;2.50;;
19406;SDS011;9839;53.364;-1.204;2023-07-31T12:49:01;5.60;;;2.47;;
19406;SDS011;9839;53.364;-1.204;2023-07-31T12:51:27;6.93;;;2.55;;
19406;SDS011;9839;53.364;-1.204;2023-07-31T12:53:53;13.40;;;2.40;;
19406;SDS011;9839;53.364;-1.204;2023-07-31T12:56:18;8.05;;;2.10;;
19406;SDS011;9839;53.364;-1.204;2023-07-31T12:58:43;5.32;;;2.38;;
19406;SDS011;9839;53.364;-1.204;2023-07-31T13:01:09;13.40;;;2.63;;
19406;SDS011;9839;53.364;-1.204;2023-07-31T13:03:34;6.18;;;2.08;;
19406;SDS011;9839;53.364;-1.204;2023-07-31T13:05:59;6.00;;;2.08;;
19406;SDS011;9839;53.364;-1.204;2023-07-31T13:08:25;6.75;;;2.47;;
19406;SDS011;9839;53.364;-1.204;2023-07-31T13:10:50;5.20;;;2.15;;
19406;SDS011;9839;53.364;-1.204;2023-07-31T13:13:16;7.97;;;2.35;;
19406;SDS011;9839;53.364;-1.204;2023-07-31T13:15:41;5.43;;;2.28;;
19406;SDS011;9839;53.364;-1.204;2023-07-31T13:18:06;7.50;;;2.10;;
19406;SDS011;9839;53.364;-1.204;2023-07-31T13:20:32;8.45;;;2.33;;
19406;SDS011;9839;53.364;-1.204;2023-07-31T13:22:57;6.18;;;2.38;;
19406;SDS011;9839;53.364;-1.204;2023-07-31T13:25:22;8.02;;;2.33;;
19406;SDS011;9839;53.364;-1.204;2023-07-31T13:27:48;7.05;;;2.53;;
19406;SDS011;9839;53.364;-1.204;2023-07-31T13:30:13;6.18;;;2.40;;
19406;SDS011;9839;53.364;-1.204;2023-07-31T13:32:38;12.70;;;2.65;;
19406;SDS011;9839;53.364;-1.204;2023-07-31T13:35:07;8.63;;;2.50;;
19406;SDS011;9839;53.364;-1.204;2023-07-31T13:37:33;8.23;;;2.80;;
19406;SDS011;9839;53.364;-1.204;2023-07-31T13:39:59;6.40;;;2.60;;
19406;SDS011;9839;53.364;-1.204;2023-07-31T13:42:25;5.82;;;2.30;;
19406;SDS011;9839;53.364;-1.204;2023-07-31T13:44:50;7.20;;;2.20;;
19406;SDS011;9839;53.364;-1.204;2023-07-31T13:47:17;5.60;;;2.35;;
19406;SDS011;9839;53.364;-1.204;2023-07-31T13:49:42;7.65;;;2.38;;
19406;SDS011;9839;53.364;-1.204;2023-07-31T13:52:08;8.55;;;2.58;;
19406;SDS011;9839;53.364;-1.204;2023-07-31T13:54:34;9.27;;;2.42;;
19406;SDS011;9839;53.364;-1.204;2023-07-31T13:56:59;6.13;;;2.28;;
19406;SDS011;9839;53.364;-1.204;2023-07-31T13:59:25;5.60;;;2.45;;
19406;SDS011;9839;53.364;-1.204;2023-07-31T14:01:50;7.78;;;2.70;;
19406;SDS011;9839;53.364;-1.204;2023-07-31T14:04:16;13.00;;;4.50;;
19406;SDS011;9839;53.364;-1.204;2023-07-31T14:06:42;10.75;;;2.80;;
19406;SDS011;9839;53.364;-1.204;2023-07-31T14:09:08;10.55;;;2.92;;
19406;SDS011;9839;53.364;-1.204;2023-07-31T14:11:33;9.75;;;3.47;;
19406;SDS011;9839;53.364;-1.204;2023-07-31T14:13:59;8.65;;;2.60;;
19406;SDS011;9839;53.364;-1.204;2023-07-31T14:16:24;12.00;;;3.33;;
19406;SDS011;9839;53.364;-1.204;2023-07-31T14:18:49;8.40;;;3.70;;
19406;SDS011;9839;53.364;-1.204;2023-07-31T14:21:15;7.25;;;3.10;;
19406;SDS011;9839;53.364;-1.204;2023-07-31T14:23:41;11.68;;;3.15;;
19406;SDS011;9839;53.364;-1.204;2023-07-31T14:26:07;7.93;;;2.70;;
19406;SDS011;9839;53.364;-1.204;2023-07-31T14:28:32;10.55;;;3.08;;
19406;SDS011;9839;53.364;-1.204;2023-07-31T14:30:58;8.73;;;2.97;;
19406;SDS011;9839;53.364;-1.204;2023-07-31T14:33:24;9.02;;;2.92;;
19406;SDS011;9839;53.364;-1.204;2023-07-31T14:35:49;7.53;;;2.88;;
19406;SDS011;9839;53.364;-1.204;2023-07-31T14:38:14;10.43;;;2.85;;
19406;SDS011;9839;53.364;-1.204;2023-07-31T14:40:40;9.82;;;3.13;;
19406;SDS011;9839;53.364;-1.204;2023-07-31T14:43:05;16.60;;;3.22;;
19406;SDS011;9839;53.364;-1.204;2023-07-31T14:45:30;7.90;;;2.85;;
19406;SDS011;9839;53.364;-1.204;2023-07-31T14:47:56;7.05;;;2.90;;
19406;SDS011;9839;53.364;-1.204;2023-07-31T14:50:21;11.23;;;3.30;;
19406;SDS011;9839;53.364;-1.204;2023-07-31T14:52:47;13.07;;;2.92;;
19406;SDS011;9839;53.364;-1.204;2023-07-31T14:55:13;7.57;;;2.88;;
19406;SDS011;9839;53.364;-1.204;2023-07-31T14:57:38;5.20;;;2.45;;
19406;SDS011;9839;53.364;-1.204;2023-07-31T15:00:04;7.88;;;2.72;;
19406;SDS011;9839;53.364;-1.204;2023-07-31T15:02:36;9.95;;;2.30;;
19406;SDS011;9839;53.364;-1.204;2023-07-31T15:05:05;8.15;;;2.00;;
19406;SDS011;9839;53.364;-1.204;2023-07-31T15:07:30;7.15;;;2.67;;
19406;SDS011;9839;53.364;-1.204;2023-07-31T15:09:56;4.20;;;1.85;;
19406;SDS011;9839;53.364;-1.204;2023-07-31T15:12:22;6.30;;;2.35;;
19406;SDS011;9839;53.364;-1.204;2023-07-31T15:14:48;6.55;;;2.65;;
19406;SDS011;9839;53.364;-1.204;2023-07-31T15:17:14;7.63;;;2.67;;
19406;SDS011;9839;53.364;-1.204;2023-07-31T15:19:39;8.70;;;2.53;;
19406;SDS011;9839;53.364;-1.204;2023-07-31T15:22:04;5.75;;;2.40;;
19406;SDS011;9839;53.364;-1.204;2023-07-31T15:24:30;10.88;;;3.20;;
19406;SDS011;9839;53.364;-1.204;2023-07-31T15:26:56;7.57;;;1.90;;
19406;SDS011;9839;53.364;-1.204;2023-07-31T15:29:21;7.45;;;2.45;;
19406;SDS011;9839;53.364;-1.204;2023-07-31T15:31:47;6.85;;;2.40;;
19406;SDS011;9839;53.364;-1.204;2023-07-31T15:34:13;9.75;;;1.90;;
19406;SDS011;9839;53.364;-1.204;2023-07-31T15:36:39;8.30;;;1.92;;
19406;SDS011;9839;53.364;-1.204;2023-07-31T15:39:04;8.38;;;2.20;;
19406;SDS011;9839;53.364;-1.204;2023-07-31T15:41:30;5.43;;;1.85;;
19406;SDS011;9839;53.364;-1.204;2023-07-31T15:43:56;6.45;;;2.13;;
19406;SDS011;9839;53.364;-1.204;2023-07-31T15:46:21;3.80;;;1.70;;
19406;SDS011;9839;53.364;-1.204;2023-07-31T15:48:46;6.63;;;2.10;;
19406;SDS011;9839;53.364;-1.204;2023-07-31T15:51:12;6.85;;;2.00;;
19406;SDS011;9839;53.364;-1.204;2023-07-31T15:53:37;5.05;;;2.38;;
19406;SDS011;9839;53.364;-1.204;2023-07-31T15:56:03;4.50;;;1.73;;
19406;SDS011;9839;53.364;-1.204;2023-07-31T15:58:28;7.68;;;2.40;;
19406;SDS011;9839;53.364;-1.204;2023-07-31T16:00:54;8.38;;;2.45;;
19406;SDS011;9839;53.364;-1.204;2023-07-31T16:03:19;7.55;;;2.00;;
19406;SDS011;9839;53.364;-1.204;2023-07-31T16:05:46;8.02;;;2.20;;